首页
METAR-TAF:

METAR-TAF

机场 :

肯尼思·卡翁达国际机场

路沙卡, 赞比亚

纬度: 15-19-51S, 经度: 028-27-09E, 海拔: 1152米

当前天气观测

该预报发布于27分钟前的07:00 UTC
风速7节,风向
温度 21°C
湿度 43%
气压 1025 hPa
能見度: 9000

METAR: FLKK 200700Z 10007KT 9000 NSC 21/08 Q1025

时间: 09:27 (07:27 UTC)


TAF: 丢失

超过4000个机场的气象观测和天气预报(METAR&TAF报告)。

可查询的气象台以黄色和红色小点在地图上表示。

将鼠标移到小点上方,可查看气象台名称。

然后点击查看天气观测和预报。

如需切换地图:点击带黑十字的绿色按钮放大地图;点击带横线的绿色按钮缩小地图;或者点击绿色箭头查看邻近地区的地图。


METAR-TAF: